sensor_id;sensor_type;location;lat;lon;timestamp;P1;durP1;ratioP1;P2;durP2;ratioP2
67696;SDS011;54486;51.442;6.778;2023-04-19T00:00:13;14.30;;;7.00;;
67696;SDS011;54486;51.442;6.778;2023-04-19T00:02:41;14.07;;;7.20;;
67696;SDS011;54486;51.442;6.778;2023-04-19T00:05:08;14.05;;;7.45;;
67696;SDS011;54486;51.442;6.778;2023-04-19T00:07:37;14.63;;;7.17;;
67696;SDS011;54486;51.442;6.778;2023-04-19T00:10:06;15.30;;;7.80;;
67696;SDS011;54486;51.442;6.778;2023-04-19T00:12:33;17.03;;;7.73;;
67696;SDS011;54486;51.442;6.778;2023-04-19T00:15:01;14.05;;;7.70;;
67696;SDS011;54486;51.442;6.778;2023-04-19T00:17:28;14.35;;;7.70;;
67696;SDS011;54486;51.442;6.778;2023-04-19T00:19:55;14.20;;;7.82;;
67696;SDS011;54486;51.442;6.778;2023-04-19T00:22:23;15.23;;;7.30;;
67696;SDS011;54486;51.442;6.778;2023-04-19T00:24:49;14.48;;;7.68;;
67696;SDS011;54486;51.442;6.778;2023-04-19T00:27:16;15.77;;;7.50;;
67696;SDS011;54486;51.442;6.778;2023-04-19T00:29:43;15.25;;;7.90;;
67696;SDS011;54486;51.442;6.778;2023-04-19T00:32:12;14.57;;;8.15;;
67696;SDS011;54486;51.442;6.778;2023-04-19T00:34:39;15.52;;;7.55;;
67696;SDS011;54486;51.442;6.778;2023-04-19T00:37:06;14.90;;;7.40;;
67696;SDS011;54486;51.442;6.778;2023-04-19T00:39:34;14.93;;;7.53;;
67696;SDS011;54486;51.442;6.778;2023-04-19T00:42:02;15.88;;;8.57;;
67696;SDS011;54486;51.442;6.778;2023-04-19T00:44:29;16.52;;;8.43;;
67696;SDS011;54486;51.442;6.778;2023-04-19T00:46:56;14.85;;;7.63;;
67696;SDS011;54486;51.442;6.778;2023-04-19T00:49:23;16.52;;;8.25;;
67696;SDS011;54486;51.442;6.778;2023-04-19T00:51:50;14.55;;;7.20;;
67696;SDS011;54486;51.442;6.778;2023-04-19T00:54:17;15.35;;;8.40;;
67696;SDS011;54486;51.442;6.778;2023-04-19T00:56:45;15.02;;;7.57;;
67696;SDS011;54486;51.442;6.778;2023-04-19T00:59:13;14.73;;;8.03;;
67696;SDS011;54486;51.442;6.778;2023-04-19T01:04:20;14.80;;;7.45;;
67696;SDS011;54486;51.442;6.778;2023-04-19T01:06:49;13.98;;;7.75;;
67696;SDS011;54486;51.442;6.778;2023-04-19T01:09:17;16.63;;;7.45;;
67696;SDS011;54486;51.442;6.778;2023-04-19T01:11:45;14.00;;;7.78;;
67696;SDS011;54486;51.442;6.778;2023-04-19T01:14:13;14.25;;;6.95;;
67696;SDS011;54486;51.442;6.778;2023-04-19T01:16:40;15.60;;;7.18;;
67696;SDS011;54486;51.442;6.778;2023-04-19T01:19:10;14.32;;;7.50;;
67696;SDS011;54486;51.442;6.778;2023-04-19T01:21:38;13.98;;;7.55;;
67696;SDS011;54486;51.442;6.778;2023-04-19T01:24:06;14.27;;;7.57;;
67696;SDS011;54486;51.442;6.778;2023-04-19T01:26:34;14.40;;;7.22;;
67696;SDS011;54486;51.442;6.778;2023-04-19T01:29:04;12.83;;;6.80;;
67696;SDS011;54486;51.442;6.778;2023-04-19T01:31:31;12.77;;;6.75;;
67696;SDS011;54486;51.442;6.778;2023-04-19T01:33:59;13.90;;;7.45;;
67696;SDS011;54486;51.442;6.778;2023-04-19T01:36:26;14.43;;;7.20;;
67696;SDS011;54486;51.442;6.778;2023-04-19T01:38:54;14.23;;;7.28;;
67696;SDS011;54486;51.442;6.778;2023-04-19T01:41:23;14.43;;;7.72;;
67696;SDS011;54486;51.442;6.778;2023-04-19T01:43:53;14.75;;;6.88;;
67696;SDS011;54486;51.442;6.778;2023-04-19T01:46:20;14.05;;;7.28;;
67696;SDS011;54486;51.442;6.778;2023-04-19T01:48:47;14.57;;;7.90;;
67696;SDS011;54486;51.442;6.778;2023-04-19T01:51:15;15.20;;;7.72;;
67696;SDS011;54486;51.442;6.778;2023-04-19T01:53:43;14.27;;;7.63;;
67696;SDS011;54486;51.442;6.778;2023-04-19T01:56:10;14.65;;;7.53;;
67696;SDS011;54486;51.442;6.778;2023-04-19T01:58:37;14.48;;;7.65;;
67696;SDS011;54486;51.442;6.778;2023-04-19T02:01:04;13.45;;;6.75;;
67696;SDS011;54486;51.442;6.778;2023-04-19T02:03:32;15.45;;;7.72;;
67696;SDS011;54486;51.442;6.778;2023-04-19T02:05:59;13.82;;;7.75;;
67696;SDS011;54486;51.442;6.778;2023-04-19T02:08:26;13.32;;;6.80;;
67696;SDS011;54486;51.442;6.778;2023-04-19T02:10:53;14.93;;;7.38;;
67696;SDS011;54486;51.442;6.778;2023-04-19T02:13:20;15.88;;;7.03;;
67696;SDS011;54486;51.442;6.778;2023-04-19T02:16:05;13.50;;;7.05;;
67696;SDS011;54486;51.442;6.778;2023-04-19T02:18:33;14.50;;;7.28;;
67696;SDS011;54486;51.442;6.778;2023-04-19T02:21:05;13.50;;;7.25;;
67696;SDS011;54486;51.442;6.778;2023-04-19T02:23:32;14.98;;;7.00;;
67696;SDS011;54486;51.442;6.778;2023-04-19T02:26:00;13.80;;;6.60;;
67696;SDS011;54486;51.442;6.778;2023-04-19T02:28:31;14.27;;;7.00;;
67696;SDS011;54486;51.442;6.778;2023-04-19T02:31:02;13.98;;;7.30;;
67696;SDS011;54486;51.442;6.778;2023-04-19T02:33:30;14.45;;;6.97;;
67696;SDS011;54486;51.442;6.778;2023-04-19T02:35:57;15.18;;;7.55;;
67696;SDS011;54486;51.442;6.778;2023-04-19T02:38:25;15.02;;;6.72;;
67696;SDS011;54486;51.442;6.778;2023-04-19T02:40:52;14.15;;;7.40;;
67696;SDS011;54486;51.442;6.778;2023-04-19T02:43:19;13.57;;;6.95;;
67696;SDS011;54486;51.442;6.778;2023-04-19T02:45:46;12.63;;;6.40;;
67696;SDS011;54486;51.442;6.778;2023-04-19T02:48:12;13.63;;;6.73;;
67696;SDS011;54486;51.442;6.778;2023-04-19T02:50:45;13.30;;;6.22;;
67696;SDS011;54486;51.442;6.778;2023-04-19T02:53:18;12.30;;;6.28;;
67696;SDS011;54486;51.442;6.778;2023-04-19T02:55:46;12.35;;;6.13;;
67696;SDS011;54486;51.442;6.778;2023-04-19T02:58:13;13.18;;;6.22;;
67696;SDS011;54486;51.442;6.778;2023-04-19T03:00:40;11.30;;;5.13;;
67696;SDS011;54486;51.442;6.778;2023-04-19T03:03:08;11.80;;;5.78;;
67696;SDS011;54486;51.442;6.778;2023-04-19T03:05:35;11.00;;;5.13;;
67696;SDS011;54486;51.442;6.778;2023-04-19T03:08:02;12.38;;;5.32;;
67696;SDS011;54486;51.442;6.778;2023-04-19T03:10:30;10.85;;;5.13;;
67696;SDS011;54486;51.442;6.778;2023-04-19T03:12:57;11.32;;;5.15;;
67696;SDS011;54486;51.442;6.778;2023-04-19T03:15:23;10.47;;;4.77;;
67696;SDS011;54486;51.442;6.778;2023-04-19T03:17:51;10.48;;;5.00;;
67696;SDS011;54486;51.442;6.778;2023-04-19T03:20:18;11.60;;;5.00;;
67696;SDS011;54486;51.442;6.778;2023-04-19T03:22:47;10.90;;;5.00;;
67696;SDS011;54486;51.442;6.778;2023-04-19T03:25:14;9.43;;;4.70;;
67696;SDS011;54486;51.442;6.778;2023-04-19T03:27:42;10.10;;;4.88;;
67696;SDS011;54486;51.442;6.778;2023-04-19T03:30:11;10.65;;;5.07;;
67696;SDS011;54486;51.442;6.778;2023-04-19T03:32:38;12.18;;;5.15;;
67696;SDS011;54486;51.442;6.778;2023-04-19T03:35:09;10.27;;;4.93;;
67696;SDS011;54486;51.442;6.778;2023-04-19T03:37:37;10.85;;;4.82;;
67696;SDS011;54486;51.442;6.778;2023-04-19T03:40:04;10.32;;;4.50;;
67696;SDS011;54486;51.442;6.778;2023-04-19T03:42:32;10.90;;;4.88;;
67696;SDS011;54486;51.442;6.778;2023-04-19T03:44:59;10.23;;;4.72;;
67696;SDS011;54486;51.442;6.778;2023-04-19T03:47:26;10.80;;;4.63;;
67696;SDS011;54486;51.442;6.778;2023-04-19T03:49:53;9.00;;;4.10;;
67696;SDS011;54486;51.442;6.778;2023-04-19T03:52:19;9.82;;;4.10;;
67696;SDS011;54486;51.442;6.778;2023-04-19T03:54:46;10.00;;;4.40;;
67696;SDS011;54486;51.442;6.778;2023-04-19T03:57:14;9.60;;;4.47;;
67696;SDS011;54486;51.442;6.778;2023-04-19T03:59:43;10.18;;;4.50;;
67696;SDS011;54486;51.442;6.778;2023-04-19T04:02:10;9.80;;;4.18;;
67696;SDS011;54486;51.442;6.778;2023-04-19T04:04:37;10.27;;;4.00;;
67696;SDS011;54486;51.442;6.778;2023-04-19T04:07:04;9.77;;;4.22;;
67696;SDS011;54486;51.442;6.778;2023-04-19T04:09:31;9.23;;;3.80;;
67696;SDS011;54486;51.442;6.778;2023-04-19T04:11:58;9.80;;;4.05;;
67696;SDS011;54486;51.442;6.778;2023-04-19T04:14:26;8.63;;;3.60;;
67696;SDS011;54486;51.442;6.778;2023-04-19T04:16:52;9.83;;;3.70;;
67696;SDS011;54486;51.442;6.778;2023-04-19T04:19:19;8.30;;;3.67;;
67696;SDS011;54486;51.442;6.778;2023-04-19T04:21:47;8.32;;;3.67;;
67696;SDS011;54486;51.442;6.778;2023-04-19T04:24:24;8.70;;;3.63;;
67696;SDS011;54486;51.442;6.778;2023-04-19T04:26:52;8.73;;;3.22;;
67696;SDS011;54486;51.442;6.778;2023-04-19T04:29:20;9.00;;;3.47;;
67696;SDS011;54486;51.442;6.778;2023-04-19T04:31:47;8.10;;;3.30;;
67696;SDS011;54486;51.442;6.778;2023-04-19T04:34:14;8.68;;;3.70;;
67696;SDS011;54486;51.442;6.778;2023-04-19T04:36:42;8.82;;;3.40;;
67696;SDS011;54486;51.442;6.778;2023-04-19T04:39:09;8.90;;;3.45;;
67696;SDS011;54486;51.442;6.778;2023-04-19T04:41:37;9.35;;;3.40;;
67696;SDS011;54486;51.442;6.778;2023-04-19T04:44:06;8.43;;;3.45;;
67696;SDS011;54486;51.442;6.778;2023-04-19T04:46:38;7.90;;;3.07;;
67696;SDS011;54486;51.442;6.778;2023-04-19T04:49:05;8.63;;;3.40;;
67696;SDS011;54486;51.442;6.778;2023-04-19T04:51:33;8.02;;;3.10;;
67696;SDS011;54486;51.442;6.778;2023-04-19T04:54:00;8.95;;;3.60;;
67696;SDS011;54486;51.442;6.778;2023-04-19T04:56:27;8.73;;;3.50;;
67696;SDS011;54486;51.442;6.778;2023-04-19T04:58:54;8.70;;;3.97;;
67696;SDS011;54486;51.442;6.778;2023-04-19T05:01:21;8.57;;;3.70;;
67696;SDS011;54486;51.442;6.778;2023-04-19T05:03:50;8.88;;;3.38;;
67696;SDS011;54486;51.442;6.778;2023-04-19T05:06:17;9.57;;;3.40;;
67696;SDS011;54486;51.442;6.778;2023-04-19T05:08:44;8.73;;;3.73;;
67696;SDS011;54486;51.442;6.778;2023-04-19T05:11:12;8.40;;;3.53;;
67696;SDS011;54486;51.442;6.778;2023-04-19T05:13:39;9.47;;;3.30;;
67696;SDS011;54486;51.442;6.778;2023-04-19T05:16:06;9.38;;;3.42;;
67696;SDS011;54486;51.442;6.778;2023-04-19T05:18:33;8.98;;;3.45;;
67696;SDS011;54486;51.442;6.778;2023-04-19T05:21:01;9.18;;;3.80;;
67696;SDS011;54486;51.442;6.778;2023-04-19T05:23:27;9.68;;;3.92;;
67696;SDS011;54486;51.442;6.778;2023-04-19T05:25:55;9.57;;;3.67;;
67696;SDS011;54486;51.442;6.778;2023-04-19T05:28:22;8.35;;;3.58;;
67696;SDS011;54486;51.442;6.778;2023-04-19T05:30:50;10.43;;;4.28;;
67696;SDS011;54486;51.442;6.778;2023-04-19T05:33:17;9.07;;;4.15;;
67696;SDS011;54486;51.442;6.778;2023-04-19T05:35:44;8.70;;;3.55;;
67696;SDS011;54486;51.442;6.778;2023-04-19T05:38:11;10.35;;;4.40;;
67696;SDS011;54486;51.442;6.778;2023-04-19T05:40:38;8.75;;;4.00;;
67696;SDS011;54486;51.442;6.778;2023-04-19T05:43:06;9.55;;;3.92;;
67696;SDS011;54486;51.442;6.778;2023-04-19T05:45:34;9.77;;;3.92;;
67696;SDS011;54486;51.442;6.778;2023-04-19T05:48:01;10.45;;;4.47;;
67696;SDS011;54486;51.442;6.778;2023-04-19T05:50:28;8.02;;;3.33;;
67696;SDS011;54486;51.442;6.778;2023-04-19T05:52:55;8.50;;;4.07;;
67696;SDS011;54486;51.442;6.778;2023-04-19T05:55:23;10.10;;;4.30;;
67696;SDS011;54486;51.442;6.778;2023-04-19T05:57:50;9.48;;;4.05;;
67696;SDS011;54486;51.442;6.778;2023-04-19T06:00:17;9.80;;;4.20;;
67696;SDS011;54486;51.442;6.778;2023-04-19T06:02:44;9.88;;;4.40;;
67696;SDS011;54486;51.442;6.778;2023-04-19T06:05:15;10.85;;;3.92;;
67696;SDS011;54486;51.442;6.778;2023-04-19T06:07:43;9.48;;;4.03;;
67696;SDS011;54486;51.442;6.778;2023-04-19T06:10:27;10.00;;;4.13;;
67696;SDS011;54486;51.442;6.778;2023-04-19T06:13:17;8.60;;;3.47;;
67696;SDS011;54486;51.442;6.778;2023-04-19T06:15:44;9.45;;;4.20;;
67696;SDS011;54486;51.442;6.778;2023-04-19T06:18:14;8.87;;;3.67;;
67696;SDS011;54486;51.442;6.778;2023-04-19T06:20:45;9.13;;;4.00;;
67696;SDS011;54486;51.442;6.778;2023-04-19T06:23:13;10.10;;;4.10;;
67696;SDS011;54486;51.442;6.778;2023-04-19T06:25:41;9.57;;;3.73;;
67696;SDS011;54486;51.442;6.778;2023-04-19T06:28:08;8.82;;;3.53;;
67696;SDS011;54486;51.442;6.778;2023-04-19T06:30:35;9.00;;;3.63;;
67696;SDS011;54486;51.442;6.778;2023-04-19T06:33:04;10.60;;;3.80;;
67696;SDS011;54486;51.442;6.778;2023-04-19T06:35:32;10.15;;;4.20;;
67696;SDS011;54486;51.442;6.778;2023-04-19T06:37:58;9.45;;;3.83;;
67696;SDS011;54486;51.442;6.778;2023-04-19T06:40:28;10.05;;;3.47;;
67696;SDS011;54486;51.442;6.778;2023-04-19T06:42:55;8.68;;;3.67;;
67696;SDS011;54486;51.442;6.778;2023-04-19T06:45:22;8.75;;;3.70;;
67696;SDS011;54486;51.442;6.778;2023-04-19T06:47:49;7.82;;;3.55;;
67696;SDS011;54486;51.442;6.778;2023-04-19T06:50:16;8.85;;;3.78;;
67696;SDS011;54486;51.442;6.778;2023-04-19T06:52:43;8.35;;;3.47;;
67696;SDS011;54486;51.442;6.778;2023-04-19T06:55:10;8.15;;;3.42;;
67696;SDS011;54486;51.442;6.778;2023-04-19T06:57:38;7.70;;;2.90;;
67696;SDS011;54486;51.442;6.778;2023-04-19T07:00:05;9.43;;;3.30;;
67696;SDS011;54486;51.442;6.778;2023-04-19T07:02:33;10.07;;;3.40;;
67696;SDS011;54486;51.442;6.778;2023-04-19T07:05:00;9.07;;;3.30;;
67696;SDS011;54486;51.442;6.778;2023-04-19T07:07:27;7.60;;;3.00;;
67696;SDS011;54486;51.442;6.778;2023-04-19T07:09:54;8.23;;;2.90;;
67696;SDS011;54486;51.442;6.778;2023-04-19T07:12:21;10.57;;;3.37;;
67696;SDS011;54486;51.442;6.778;2023-04-19T07:14:48;9.98;;;3.40;;
67696;SDS011;54486;51.442;6.778;2023-04-19T07:17:22;8.47;;;3.03;;
67696;SDS011;54486;51.442;6.778;2023-04-19T07:19:49;8.43;;;3.40;;
67696;SDS011;54486;51.442;6.778;2023-04-19T07:22:16;7.53;;;2.95;;
67696;SDS011;54486;51.442;6.778;2023-04-19T07:24:43;8.35;;;3.28;;
67696;SDS011;54486;51.442;6.778;2023-04-19T07:27:10;8.45;;;3.25;;
67696;SDS011;54486;51.442;6.778;2023-04-19T07:29:39;8.13;;;3.47;;
67696;SDS011;54486;51.442;6.778;2023-04-19T07:32:08;9.02;;;3.15;;
67696;SDS011;54486;51.442;6.778;2023-04-19T07:34:36;8.45;;;3.20;;
67696;SDS011;54486;51.442;6.778;2023-04-19T07:37:04;8.52;;;3.53;;
67696;SDS011;54486;51.442;6.778;2023-04-19T07:39:32;7.90;;;2.97;;
67696;SDS011;54486;51.442;6.778;2023-04-19T07:41:59;8.90;;;3.15;;
67696;SDS011;54486;51.442;6.778;2023-04-19T07:44:27;8.65;;;3.50;;
67696;SDS011;54486;51.442;6.778;2023-04-19T07:46:55;8.88;;;3.00;;
67696;SDS011;54486;51.442;6.778;2023-04-19T07:49:22;7.95;;;2.97;;
67696;SDS011;54486;51.442;6.778;2023-04-19T07:51:49;9.43;;;3.55;;
67696;SDS011;54486;51.442;6.778;2023-04-19T07:54:17;9.40;;;2.95;;
67696;SDS011;54486;51.442;6.778;2023-04-19T07:56:46;8.10;;;2.93;;
67696;SDS011;54486;51.442;6.778;2023-04-19T07:59:13;8.18;;;3.13;;
67696;SDS011;54486;51.442;6.778;2023-04-19T08:01:40;7.55;;;3.00;;
67696;SDS011;54486;51.442;6.778;2023-04-19T08:04:09;8.88;;;3.00;;
67696;SDS011;54486;51.442;6.778;2023-04-19T08:06:37;7.72;;;2.90;;
67696;SDS011;54486;51.442;6.778;2023-04-19T08:09:06;7.35;;;2.97;;
67696;SDS011;54486;51.442;6.778;2023-04-19T08:11:33;7.97;;;3.03;;
67696;SDS011;54486;51.442;6.778;2023-04-19T08:14:00;7.68;;;2.83;;
67696;SDS011;54486;51.442;6.778;2023-04-19T08:16:47;8.40;;;2.80;;
67696;SDS011;54486;51.442;6.778;2023-04-19T08:19:17;7.43;;;2.58;;
67696;SDS011;54486;51.442;6.778;2023-04-19T08:21:44;8.18;;;2.97;;
67696;SDS011;54486;51.442;6.778;2023-04-19T08:24:12;7.70;;;2.88;;
67696;SDS011;54486;51.442;6.778;2023-04-19T08:26:39;7.82;;;2.75;;
67696;SDS011;54486;51.442;6.778;2023-04-19T08:29:07;7.60;;;2.90;;
67696;SDS011;54486;51.442;6.778;2023-04-19T08:31:34;7.15;;;2.20;;
67696;SDS011;54486;51.442;6.778;2023-04-19T08:34:01;8.05;;;2.70;;
67696;SDS011;54486;51.442;6.778;2023-04-19T08:36:29;8.15;;;2.60;;
67696;SDS011;54486;51.442;6.778;2023-04-19T08:39:06;8.30;;;2.80;;
67696;SDS011;54486;51.442;6.778;2023-04-19T08:41:54;7.88;;;2.70;;
67696;SDS011;54486;51.442;6.778;2023-04-19T08:44:35;8.03;;;2.83;;
67696;SDS011;54486;51.442;6.778;2023-04-19T08:47:25;7.40;;;2.65;;
67696;SDS011;54486;51.442;6.778;2023-04-19T08:50:08;7.57;;;2.42;;
67696;SDS011;54486;51.442;6.778;2023-04-19T08:52:54;9.25;;;2.80;;
67696;SDS011;54486;51.442;6.778;2023-04-19T08:55:41;6.57;;;2.33;;
67696;SDS011;54486;51.442;6.778;2023-04-19T08:58:29;7.07;;;2.42;;
67696;SDS011;54486;51.442;6.778;2023-04-19T09:01:04;8.32;;;2.60;;
67696;SDS011;54486;51.442;6.778;2023-04-19T09:03:38;8.35;;;2.53;;
67696;SDS011;54486;51.442;6.778;2023-04-19T09:06:28;7.70;;;2.67;;
67696;SDS011;54486;51.442;6.778;2023-04-19T09:09:17;7.40;;;2.28;;
67696;SDS011;54486;51.442;6.778;2023-04-19T09:12:00;8.32;;;2.55;;
67696;SDS011;54486;51.442;6.778;2023-04-19T09:14:27;8.30;;;2.30;;
67696;SDS011;54486;51.442;6.778;2023-04-19T09:17:11;7.05;;;2.25;;
67696;SDS011;54486;51.442;6.778;2023-04-19T09:19:44;7.35;;;2.70;;
67696;SDS011;54486;51.442;6.778;2023-04-19T09:22:13;7.90;;;2.47;;
67696;SDS011;54486;51.442;6.778;2023-04-19T09:24:41;7.30;;;2.45;;
67696;SDS011;54486;51.442;6.778;2023-04-19T09:27:11;6.97;;;2.47;;
67696;SDS011;54486;51.442;6.778;2023-04-19T09:29:40;6.32;;;1.98;;
67696;SDS011;54486;51.442;6.778;2023-04-19T09:32:07;7.27;;;1.87;;
67696;SDS011;54486;51.442;6.778;2023-04-19T09:34:35;6.47;;;2.03;;
67696;SDS011;54486;51.442;6.778;2023-04-19T09:37:17;6.22;;;2.03;;
67696;SDS011;54486;51.442;6.778;2023-04-19T09:40:23;6.63;;;2.00;;
67696;SDS011;54486;51.442;6.778;2023-04-19T09:42:51;7.43;;;1.95;;
67696;SDS011;54486;51.442;6.778;2023-04-19T09:45:43;6.30;;;2.10;;
67696;SDS011;54486;51.442;6.778;2023-04-19T09:48:11;6.43;;;2.23;;
67696;SDS011;54486;51.442;6.778;2023-04-19T09:50:52;7.03;;;2.10;;
67696;SDS011;54486;51.442;6.778;2023-04-19T09:53:29;5.65;;;1.80;;
67696;SDS011;54486;51.442;6.778;2023-04-19T09:56:00;6.55;;;1.98;;
67696;SDS011;54486;51.442;6.778;2023-04-19T09:58:30;6.80;;;2.30;;
67696;SDS011;54486;51.442;6.778;2023-04-19T10:01:15;6.30;;;2.10;;
67696;SDS011;54486;51.442;6.778;2023-04-19T10:03:44;6.40;;;2.05;;
67696;SDS011;54486;51.442;6.778;2023-04-19T10:06:16;6.93;;;2.20;;
67696;SDS011;54486;51.442;6.778;2023-04-19T10:08:48;6.10;;;2.00;;
67696;SDS011;54486;51.442;6.778;2023-04-19T10:11:17;8.48;;;2.08;;
67696;SDS011;54486;51.442;6.778;2023-04-19T10:13:47;8.02;;;2.28;;
67696;SDS011;54486;51.442;6.778;2023-04-19T10:16:19;6.45;;;2.03;;
67696;SDS011;54486;51.442;6.778;2023-04-19T10:18:49;6.50;;;2.13;;
67696;SDS011;54486;51.442;6.778;2023-04-19T10:21:18;7.30;;;2.00;;
67696;SDS011;54486;51.442;6.778;2023-04-19T10:23:46;7.15;;;2.03;;
67696;SDS011;54486;51.442;6.778;2023-04-19T10:26:14;7.03;;;2.15;;
67696;SDS011;54486;51.442;6.778;2023-04-19T10:28:41;7.40;;;2.20;;
67696;SDS011;54486;51.442;6.778;2023-04-19T10:31:10;6.32;;;2.08;;
67696;SDS011;54486;51.442;6.778;2023-04-19T10:33:39;6.93;;;2.13;;
67696;SDS011;54486;51.442;6.778;2023-04-19T10:36:08;6.63;;;2.10;;
67696;SDS011;54486;51.442;6.778;2023-04-19T10:38:40;6.85;;;2.35;;
67696;SDS011;54486;51.442;6.778;2023-04-19T10:41:16;6.97;;;2.63;;
67696;SDS011;54486;51.442;6.778;2023-04-19T10:43:46;6.47;;;2.10;;
67696;SDS011;54486;51.442;6.778;2023-04-19T10:48:55;7.68;;;2.47;;
67696;SDS011;54486;51.442;6.778;2023-04-19T10:51:37;7.07;;;2.30;;
67696;SDS011;54486;51.442;6.778;2023-04-19T10:54:12;6.32;;;2.20;;
67696;SDS011;54486;51.442;6.778;2023-04-19T10:57:00;7.07;;;2.10;;
67696;SDS011;54486;51.442;6.778;2023-04-19T10:59:30;6.13;;;2.17;;
67696;SDS011;54486;51.442;6.778;2023-04-19T11:01:59;5.70;;;1.95;;
67696;SDS011;54486;51.442;6.778;2023-04-19T11:07:16;6.47;;;2.17;;
67696;SDS011;54486;51.442;6.778;2023-04-19T11:09:45;6.20;;;2.10;;
67696;SDS011;54486;51.442;6.778;2023-04-19T11:12:13;6.60;;;2.17;;
67696;SDS011;54486;51.442;6.778;2023-04-19T11:14:59;6.00;;;1.90;;
67696;SDS011;54486;51.442;6.778;2023-04-19T11:17:30;7.30;;;2.40;;
67696;SDS011;54486;51.442;6.778;2023-04-19T11:22:35;5.97;;;2.00;;
67696;SDS011;54486;51.442;6.778;2023-04-19T11:25:19;6.33;;;1.90;;
67696;SDS011;54486;51.442;6.778;2023-04-19T11:27:48;6.72;;;2.13;;
67696;SDS011;54486;51.442;6.778;2023-04-19T11:30:21;6.72;;;2.20;;
67696;SDS011;54486;51.442;6.778;2023-04-19T11:32:54;6.63;;;1.90;;
67696;SDS011;54486;51.442;6.778;2023-04-19T11:35:24;6.70;;;2.05;;
67696;SDS011;54486;51.442;6.778;2023-04-19T11:37:53;6.47;;;2.00;;
67696;SDS011;54486;51.442;6.778;2023-04-19T11:40:22;6.63;;;2.08;;
67696;SDS011;54486;51.442;6.778;2023-04-19T11:42:55;6.15;;;1.95;;
67696;SDS011;54486;51.442;6.778;2023-04-19T11:45:29;7.65;;;1.90;;
67696;SDS011;54486;51.442;6.778;2023-04-19T11:48:04;7.05;;;2.17;;
67696;SDS011;54486;51.442;6.778;2023-04-19T11:50:37;7.65;;;2.00;;
67696;SDS011;54486;51.442;6.778;2023-04-19T11:53:08;7.10;;;2.20;;
67696;SDS011;54486;51.442;6.778;2023-04-19T11:55:41;7.22;;;2.10;;
67696;SDS011;54486;51.442;6.778;2023-04-19T12:01:11;7.03;;;2.30;;
67696;SDS011;54486;51.442;6.778;2023-04-19T12:03:40;7.32;;;2.67;;
67696;SDS011;54486;51.442;6.778;2023-04-19T12:06:23;7.20;;;2.33;;
67696;SDS011;54486;51.442;6.778;2023-04-19T12:08:51;7.53;;;2.63;;
67696;SDS011;54486;51.442;6.778;2023-04-19T12:11:23;7.60;;;2.47;;
67696;SDS011;54486;51.442;6.778;2023-04-19T12:14:08;6.75;;;2.30;;
67696;SDS011;54486;51.442;6.778;2023-04-19T12:16:36;7.82;;;2.20;;
67696;SDS011;54486;51.442;6.778;2023-04-19T12:19:10;6.60;;;2.17;;
67696;SDS011;54486;51.442;6.778;2023-04-19T12:21:40;7.63;;;2.70;;
67696;SDS011;54486;51.442;6.778;2023-04-19T12:24:07;7.90;;;2.38;;
67696;SDS011;54486;51.442;6.778;2023-04-19T12:26:34;6.82;;;2.33;;
67696;SDS011;54486;51.442;6.778;2023-04-19T12:29:02;7.63;;;2.47;;
67696;SDS011;54486;51.442;6.778;2023-04-19T12:31:29;6.22;;;2.20;;
67696;SDS011;54486;51.442;6.778;2023-04-19T12:34:00;7.20;;;2.22;;
67696;SDS011;54486;51.442;6.778;2023-04-19T12:36:27;6.78;;;2.28;;
67696;SDS011;54486;51.442;6.778;2023-04-19T12:38:54;8.48;;;2.70;;
67696;SDS011;54486;51.442;6.778;2023-04-19T12:41:21;6.90;;;2.60;;
67696;SDS011;54486;51.442;6.778;2023-04-19T12:43:48;7.55;;;2.80;;
67696;SDS011;54486;51.442;6.778;2023-04-19T12:46:15;7.00;;;2.80;;
67696;SDS011;54486;51.442;6.778;2023-04-19T12:48:42;8.32;;;2.53;;
67696;SDS011;54486;51.442;6.778;2023-04-19T12:51:09;6.63;;;2.45;;
67696;SDS011;54486;51.442;6.778;2023-04-19T12:53:36;7.95;;;2.25;;
67696;SDS011;54486;51.442;6.778;2023-04-19T12:56:04;7.45;;;2.50;;
67696;SDS011;54486;51.442;6.778;2023-04-19T12:58:31;7.03;;;2.40;;
67696;SDS011;54486;51.442;6.778;2023-04-19T13:00:58;6.97;;;2.17;;
67696;SDS011;54486;51.442;6.778;2023-04-19T13:03:25;8.23;;;2.40;;
67696;SDS011;54486;51.442;6.778;2023-04-19T13:05:52;6.82;;;2.05;;
67696;SDS011;54486;51.442;6.778;2023-04-19T13:08:19;6.75;;;2.15;;
67696;SDS011;54486;51.442;6.778;2023-04-19T13:11:02;8.10;;;2.67;;
67696;SDS011;54486;51.442;6.778;2023-04-19T13:13:29;6.53;;;2.03;;
67696;SDS011;54486;51.442;6.778;2023-04-19T13:15:57;6.10;;;2.10;;
67696;SDS011;54486;51.442;6.778;2023-04-19T13:18:25;6.45;;;2.17;;
67696;SDS011;54486;51.442;6.778;2023-04-19T13:20:52;6.55;;;2.20;;
67696;SDS011;54486;51.442;6.778;2023-04-19T13:23:19;7.17;;;2.40;;
67696;SDS011;54486;51.442;6.778;2023-04-19T13:25:47;6.78;;;2.38;;
67696;SDS011;54486;51.442;6.778;2023-04-19T13:28:14;7.55;;;2.40;;
67696;SDS011;54486;51.442;6.778;2023-04-19T13:30:41;6.90;;;2.10;;
67696;SDS011;54486;51.442;6.778;2023-04-19T13:33:08;6.57;;;2.25;;
67696;SDS011;54486;51.442;6.778;2023-04-19T13:35:35;7.25;;;2.35;;
67696;SDS011;54486;51.442;6.778;2023-04-19T13:38:02;6.13;;;1.98;;
67696;SDS011;54486;51.442;6.778;2023-04-19T13:40:28;6.50;;;2.40;;
67696;SDS011;54486;51.442;6.778;2023-04-19T13:42:55;6.63;;;2.47;;
67696;SDS011;54486;51.442;6.778;2023-04-19T13:45:22;6.35;;;2.10;;
67696;SDS011;54486;51.442;6.778;2023-04-19T13:47:49;6.60;;;2.25;;
67696;SDS011;54486;51.442;6.778;2023-04-19T13:50:16;6.43;;;2.40;;
67696;SDS011;54486;51.442;6.778;2023-04-19T13:52:43;7.15;;;2.10;;
67696;SDS011;54486;51.442;6.778;2023-04-19T13:55:10;7.00;;;2.30;;
67696;SDS011;54486;51.442;6.778;2023-04-19T13:57:37;6.03;;;2.20;;
67696;SDS011;54486;51.442;6.778;2023-04-19T14:00:04;6.47;;;2.35;;
67696;SDS011;54486;51.442;6.778;2023-04-19T14:02:32;7.00;;;2.60;;
67696;SDS011;54486;51.442;6.778;2023-04-19T14:04:59;6.25;;;2.13;;
67696;SDS011;54486;51.442;6.778;2023-04-19T14:07:26;7.30;;;2.20;;
67696;SDS011;54486;51.442;6.778;2023-04-19T14:09:53;6.75;;;2.58;;
67696;SDS011;54486;51.442;6.778;2023-04-19T14:12:20;6.30;;;2.03;;
67696;SDS011;54486;51.442;6.778;2023-04-19T14:14:47;7.20;;;2.05;;
67696;SDS011;54486;51.442;6.778;2023-04-19T14:17:14;6.15;;;2.03;;
67696;SDS011;54486;51.442;6.778;2023-04-19T14:19:41;6.45;;;2.10;;
67696;SDS011;54486;51.442;6.778;2023-04-19T14:22:08;6.93;;;2.10;;
67696;SDS011;54486;51.442;6.778;2023-04-19T14:24:35;6.60;;;2.42;;
67696;SDS011;54486;51.442;6.778;2023-04-19T14:27:02;6.72;;;2.47;;
67696;SDS011;54486;51.442;6.778;2023-04-19T14:29:37;6.45;;;2.08;;
67696;SDS011;54486;51.442;6.778;2023-04-19T14:32:04;7.10;;;2.08;;
67696;SDS011;54486;51.442;6.778;2023-04-19T14:34:50;6.70;;;2.53;;
67696;SDS011;54486;51.442;6.778;2023-04-19T14:37:18;6.70;;;2.40;;
67696;SDS011;54486;51.442;6.778;2023-04-19T14:39:47;6.80;;;2.70;;
67696;SDS011;54486;51.442;6.778;2023-04-19T14:42:14;6.50;;;2.20;;
67696;SDS011;54486;51.442;6.778;2023-04-19T14:44:41;6.03;;;1.95;;
67696;SDS011;54486;51.442;6.778;2023-04-19T14:47:10;6.57;;;2.37;;
67696;SDS011;54486;51.442;6.778;2023-04-19T14:49:37;6.10;;;1.93;;
67696;SDS011;54486;51.442;6.778;2023-04-19T14:52:04;6.25;;;1.92;;
67696;SDS011;54486;51.442;6.778;2023-04-19T14:54:31;6.75;;;2.28;;
67696;SDS011;54486;51.442;6.778;2023-04-19T14:56:58;5.93;;;1.80;;
67696;SDS011;54486;51.442;6.778;2023-04-19T14:59:27;5.97;;;1.98;;
67696;SDS011;54486;51.442;6.778;2023-04-19T15:01:55;6.38;;;2.22;;
67696;SDS011;54486;51.442;6.778;2023-04-19T15:04:22;6.35;;;2.00;;
67696;SDS011;54486;51.442;6.778;2023-04-19T15:06:49;6.32;;;1.90;;
67696;SDS011;54486;51.442;6.778;2023-04-19T15:09:17;6.22;;;1.90;;